Weather at Saratok Hospital Heliport

Public forecast

Using degrees Celsius for public forecast. Weather courtesy of forecast.io.

Closest aviation weather report (METAR) to Saratok Hospital Heliport

Closest report is Simanggang Airport, 32.4 nm (60.0 km) SSE.

(retrieved 0 seconds ago)

Closest aviation forecast (TAF) to Saratok Hospital Heliport

Forecast is more than 12 hours old.

Closest forecast is Aden Adde International Airport, 3,962.5 nm (7,338.5 km) W.

2024/05/23 12:54 (retrieved 13 hours ago)

TAF TAF HCMM 231100Z 2312/2418 21013KT 9999 SCT024 PROB30 TEMPO 2314/2321 8000 -SHRA BKN023 BECMG 2402/2404 22008KT 9999 NSW BKN020 BECMG 2406/2409 23015KT SCT024